createdAt,value
2022-08-31T00:02:39.141Z,16.20
2022-08-31T00:05:25.158Z,16.00
2022-08-31T00:08:10.942Z,15.90
2022-08-31T00:10:57.231Z,15.90
2022-08-31T00:13:44.490Z,15.90
2022-08-31T00:16:33.024Z,15.80
2022-08-31T00:19:19.998Z,15.80
2022-08-31T00:22:05.514Z,15.80
2022-08-31T00:24:51.231Z,15.70
2022-08-31T00:27:37.187Z,15.70
2022-08-31T00:30:23.514Z,15.60
2022-08-31T00:33:09.577Z,15.60
2022-08-31T00:35:55.358Z,15.60
2022-08-31T00:38:41.614Z,15.60
2022-08-31T00:41:30.036Z,15.50
2022-08-31T00:44:15.625Z,15.40
2022-08-31T00:47:01.667Z,15.40
2022-08-31T00:49:51.353Z,15.40
2022-08-31T00:52:41.931Z,15.40
2022-08-31T00:55:34.720Z,15.30
2022-08-31T00:58:20.704Z,15.20
2022-08-31T01:01:09.005Z,15.20
2022-08-31T01:03:55.281Z,15.20
2022-08-31T01:06:41.655Z,15.20
2022-08-31T01:09:31.944Z,15.10
2022-08-31T01:12:17.579Z,15.10
2022-08-31T01:15:06.408Z,15.00
2022-08-31T01:17:55.001Z,15.00
2022-08-31T01:21:09.751Z,14.90
2022-08-31T01:23:59.062Z,14.90
2022-08-31T01:26:49.734Z,14.90
2022-08-31T01:29:42.175Z,14.80
2022-08-31T01:32:28.136Z,14.80
2022-08-31T01:35:13.810Z,14.80
2022-08-31T01:37:59.443Z,14.70
2022-08-31T01:40:52.259Z,14.70
2022-08-31T01:43:38.022Z,14.60
2022-08-31T01:46:25.573Z,14.50
2022-08-31T01:49:13.737Z,14.40
2022-08-31T01:51:59.344Z,14.20
2022-08-31T01:54:44.849Z,14.20
2022-08-31T01:57:33.999Z,14.10
2022-08-31T02:00:40.531Z,14.00
2022-08-31T02:03:26.484Z,14.00
2022-08-31T02:06:13.581Z,13.90
2022-08-31T02:09:00.138Z,13.90
2022-08-31T02:11:45.791Z,13.90
2022-08-31T02:14:31.634Z,13.80
2022-08-31T02:17:18.630Z,13.90
2022-08-31T02:20:09.339Z,13.90
2022-08-31T02:22:54.979Z,13.90
2022-08-31T02:25:40.513Z,13.80
2022-08-31T02:28:26.407Z,13.90
2022-08-31T02:31:12.182Z,13.90
2022-08-31T02:34:05.481Z,13.90
2022-08-31T02:36:51.636Z,13.90
2022-08-31T02:39:37.642Z,13.90
2022-08-31T02:42:24.771Z,13.80
2022-08-31T02:45:10.787Z,13.80
2022-08-31T02:47:57.216Z,13.80
2022-08-31T02:50:52.591Z,13.80
2022-08-31T02:53:39.422Z,13.80
2022-08-31T02:56:25.918Z,13.80
2022-08-31T02:59:11.747Z,13.70
2022-08-31T03:01:57.760Z,13.70
2022-08-31T03:04:44.807Z,13.70
2022-08-31T03:07:34.211Z,13.70
2022-08-31T03:10:21.859Z,13.70
2022-08-31T03:13:08.163Z,13.70
2022-08-31T03:15:53.779Z,13.60
2022-08-31T03:18:40.521Z,13.70
2022-08-31T03:21:26.808Z,13.70
2022-08-31T03:24:14.587Z,13.70
2022-08-31T03:27:00.383Z,13.70
2022-08-31T03:29:46.585Z,13.70
2022-08-31T03:32:35.905Z,13.70
2022-08-31T03:35:23.057Z,13.70
2022-08-31T03:38:12.621Z,13.70
2022-08-31T03:40:58.669Z,13.80
2022-08-31T03:43:44.556Z,13.80
2022-08-31T03:46:33.070Z,13.70
2022-08-31T03:49:19.686Z,13.70
2022-08-31T03:52:24.018Z,13.70
2022-08-31T03:55:20.001Z,13.70
2022-08-31T03:58:07.455Z,13.70
2022-08-31T04:00:54.432Z,13.60
2022-08-31T04:04:05.821Z,13.60
2022-08-31T04:07:09.999Z,13.60
2022-08-31T04:10:27.480Z,13.60
2022-08-31T04:13:31.520Z,13.60
2022-08-31T04:16:37.477Z,13.60
2022-08-31T04:19:43.453Z,13.60
2022-08-31T04:22:55.380Z,13.60
2022-08-31T04:25:53.173Z,13.60
2022-08-31T04:28:38.731Z,13.50
2022-08-31T04:31:25.667Z,13.50
2022-08-31T04:34:11.524Z,13.50
2022-08-31T04:36:57.051Z,13.40
2022-08-31T04:39:50.424Z,13.40
2022-08-31T04:42:37.233Z,13.40
2022-08-31T04:45:24.625Z,13.40
2022-08-31T04:48:11.025Z,13.40
2022-08-31T04:51:06.429Z,13.30
2022-08-31T04:53:53.372Z,13.30
2022-08-31T04:56:42.626Z,13.30
2022-08-31T04:59:28.200Z,13.30
2022-08-31T05:02:51.325Z,13.30
2022-08-31T05:05:40.303Z,13.30
2022-08-31T05:08:25.816Z,13.30
2022-08-31T05:11:14.822Z,13.30
2022-08-31T05:14:02.288Z,13.30
2022-08-31T05:16:48.930Z,13.20
2022-08-31T05:19:39.140Z,13.20
2022-08-31T05:22:28.750Z,13.20
2022-08-31T05:25:15.424Z,13.20
2022-08-31T05:28:00.950Z,13.20
2022-08-31T05:30:47.529Z,13.20
2022-08-31T05:33:51.830Z,13.20
2022-08-31T05:36:44.000Z,13.30
2022-08-31T05:39:32.022Z,13.30
2022-08-31T05:42:17.535Z,13.40
2022-08-31T05:45:02.978Z,13.40
2022-08-31T05:47:49.650Z,13.50
2022-08-31T05:50:37.133Z,13.50
2022-08-31T05:53:23.783Z,13.60
2022-08-31T05:56:15.321Z,13.70
2022-08-31T05:59:06.111Z,13.80
2022-08-31T06:01:52.247Z,13.80
2022-08-31T06:04:42.801Z,13.90
2022-08-31T06:07:29.685Z,14.00
2022-08-31T06:10:19.360Z,14.20
2022-08-31T06:13:05.372Z,14.20
2022-08-31T06:15:51.848Z,14.40
2022-08-31T06:18:38.652Z,14.50
2022-08-31T06:21:30.935Z,14.60
2022-08-31T06:24:17.239Z,14.70
2022-08-31T06:27:06.069Z,14.90
2022-08-31T06:29:53.421Z,15.00
2022-08-31T06:32:39.204Z,15.10
2022-08-31T06:35:26.695Z,15.30
2022-08-31T06:38:41.389Z,15.40
2022-08-31T06:41:56.928Z,15.50
2022-08-31T06:44:51.392Z,15.70
2022-08-31T06:47:38.420Z,15.80
2022-08-31T06:50:24.916Z,15.90
2022-08-31T06:53:11.807Z,16.00
2022-08-31T06:56:30.857Z,16.10
2022-08-31T06:59:42.236Z,16.30
2022-08-31T07:02:54.760Z,16.50
2022-08-31T07:05:43.247Z,16.70
2022-08-31T07:08:28.697Z,16.70
2022-08-31T07:11:21.346Z,16.80
2022-08-31T07:14:09.206Z,16.90
2022-08-31T07:16:58.327Z,17.00
2022-08-31T07:19:44.930Z,17.10
2022-08-31T07:22:31.578Z,17.20
2022-08-31T07:25:40.244Z,17.30
2022-08-31T07:28:29.078Z,17.40
2022-08-31T07:31:16.172Z,17.50
2022-08-31T07:34:03.530Z,17.50
2022-08-31T07:37:09.264Z,17.60
2022-08-31T07:40:14.673Z,17.80
2022-08-31T07:43:04.478Z,17.80
2022-08-31T07:45:52.048Z,17.80
2022-08-31T07:48:42.043Z,17.80
2022-08-31T07:51:50.467Z,17.90
2022-08-31T07:55:09.380Z,18.00
2022-08-31T07:58:28.117Z,18.00
2022-08-31T08:01:15.164Z,18.10
2022-08-31T08:04:02.359Z,18.10
2022-08-31T08:07:08.230Z,18.20
2022-08-31T08:10:14.281Z,18.40
2022-08-31T08:13:20.109Z,18.40
2022-08-31T08:16:14.468Z,18.50
2022-08-31T08:19:35.625Z,18.60
2022-08-31T08:22:41.544Z,18.50
2022-08-31T08:26:08.935Z,18.50
2022-08-31T08:29:14.842Z,18.60
2022-08-31T08:32:02.395Z,18.80
2022-08-31T08:34:48.247Z,18.70
2022-08-31T08:37:56.827Z,18.80
2022-08-31T08:40:42.784Z,18.70
2022-08-31T08:43:43.652Z,18.70
2022-08-31T08:46:43.994Z,18.70
2022-08-31T08:49:41.028Z,18.70
2022-08-31T08:52:29.747Z,18.60
2022-08-31T08:55:19.618Z,18.60
2022-08-31T08:58:09.349Z,18.70
2022-08-31T09:01:01.245Z,18.70
2022-08-31T09:04:11.790Z,18.90
2022-08-31T09:07:21.318Z,19.00
2022-08-31T09:10:22.431Z,19.10
2022-08-31T09:13:30.986Z,19.10
2022-08-31T09:16:56.276Z,19.20
2022-08-31T09:20:00.346Z,19.30
2022-08-31T09:22:55.768Z,19.20
2022-08-31T09:25:52.173Z,19.40
2022-08-31T09:28:58.534Z,19.50
2022-08-31T09:31:46.590Z,19.30
2022-08-31T09:34:37.263Z,19.40
2022-08-31T09:37:29.151Z,19.30
2022-08-31T09:40:23.643Z,19.50
2022-08-31T09:43:28.015Z,19.60
2022-08-31T09:46:29.398Z,19.70
2022-08-31T09:49:34.437Z,19.90
2022-08-31T09:52:47.117Z,19.90
2022-08-31T09:55:32.743Z,19.80
2022-08-31T09:58:30.874Z,19.90
2022-08-31T10:01:38.629Z,19.90
2022-08-31T10:04:27.146Z,20.00
2022-08-31T10:07:49.021Z,20.10
2022-08-31T10:10:39.097Z,20.20
2022-08-31T10:13:47.866Z,20.30
2022-08-31T10:16:36.293Z,20.30
2022-08-31T10:19:30.407Z,20.40
2022-08-31T10:22:42.100Z,20.60
2022-08-31T10:25:34.031Z,20.70
2022-08-31T10:28:53.588Z,21.00
2022-08-31T10:31:48.455Z,20.90
2022-08-31T10:34:59.235Z,20.80
2022-08-31T10:37:54.996Z,20.60
2022-08-31T10:40:50.891Z,20.70
2022-08-31T10:43:46.055Z,20.80
2022-08-31T10:46:35.430Z,20.90
2022-08-31T10:49:22.195Z,21.00
2022-08-31T10:52:25.605Z,21.10
2022-08-31T10:55:40.131Z,21.20
2022-08-31T10:58:37.606Z,21.20
2022-08-31T11:01:40.638Z,21.20
2022-08-31T11:04:38.527Z,21.60
2022-08-31T11:07:55.909Z,21.70
2022-08-31T11:10:51.728Z,21.80
2022-08-31T11:13:48.655Z,22.00
2022-08-31T11:16:56.955Z,22.00
2022-08-31T11:20:01.131Z,22.00
2022-08-31T11:23:10.245Z,21.90
2022-08-31T11:26:12.592Z,22.10
2022-08-31T11:29:10.072Z,22.20
2022-08-31T11:32:00.859Z,22.10
2022-08-31T11:35:10.699Z,22.10
2022-08-31T11:37:56.588Z,22.40
2022-08-31T11:41:03.062Z,22.50
2022-08-31T11:43:52.234Z,22.50
2022-08-31T11:46:40.066Z,22.30
2022-08-31T11:49:40.589Z,22.30
2022-08-31T11:52:43.343Z,22.30
2022-08-31T11:55:45.327Z,22.40
2022-08-31T11:58:34.676Z,22.40
2022-08-31T12:01:33.814Z,22.50
2022-08-31T12:05:02.879Z,22.60
2022-08-31T12:07:49.348Z,22.70
2022-08-31T12:11:05.782Z,22.70
2022-08-31T12:13:59.913Z,22.60
2022-08-31T12:17:09.898Z,22.70
2022-08-31T12:20:13.626Z,22.80
2022-08-31T12:23:35.489Z,22.80
2022-08-31T12:26:59.323Z,23.00
2022-08-31T12:29:45.874Z,23.20
2022-08-31T12:32:39.611Z,22.90
2022-08-31T12:35:27.328Z,22.80
2022-08-31T12:38:26.245Z,22.70
2022-08-31T12:41:14.143Z,22.80
2022-08-31T12:44:00.312Z,22.90
2022-08-31T12:47:01.350Z,22.50
2022-08-31T12:50:18.028Z,22.30
2022-08-31T12:53:17.344Z,22.60
2022-08-31T12:56:26.073Z,22.30
2022-08-31T12:59:57.006Z,22.50
2022-08-31T13:02:42.979Z,22.90
2022-08-31T13:05:36.224Z,22.60
2022-08-31T13:08:24.103Z,22.50
2022-08-31T13:11:34.986Z,22.40
2022-08-31T13:14:29.261Z,22.30
2022-08-31T13:17:21.934Z,22.30
2022-08-31T13:20:08.046Z,22.40
2022-08-31T13:23:00.176Z,22.40
2022-08-31T13:25:51.794Z,22.30
2022-08-31T13:28:37.597Z,22.40
2022-08-31T13:31:29.937Z,22.60
2022-08-31T13:34:15.723Z,22.60
2022-08-31T13:37:03.059Z,22.10
2022-08-31T13:39:48.869Z,22.30
2022-08-31T13:42:50.063Z,22.30
2022-08-31T13:46:01.095Z,22.10
2022-08-31T13:48:53.918Z,22.10
2022-08-31T13:51:44.944Z,22.50
2022-08-31T13:54:34.180Z,22.10
2022-08-31T13:57:25.816Z,22.40
2022-08-31T14:00:39.027Z,22.30
2022-08-31T14:03:49.380Z,22.30
2022-08-31T14:06:38.003Z,22.30
2022-08-31T14:09:23.727Z,21.90
2022-08-31T14:12:09.358Z,21.70
2022-08-31T14:14:57.127Z,21.90
2022-08-31T14:21:24.142Z,21.40
2022-08-31T14:24:12.152Z,21.50
2022-08-31T14:27:00.289Z,21.60
2022-08-31T14:29:46.149Z,21.50
2022-08-31T14:32:33.265Z,21.50
2022-08-31T14:35:18.852Z,21.70
2022-08-31T14:38:04.635Z,21.70
2022-08-31T14:40:50.627Z,21.90
2022-08-31T14:43:38.962Z,22.10
2022-08-31T14:46:28.123Z,21.90
2022-08-31T14:49:14.110Z,21.80
2022-08-31T14:52:06.161Z,21.80
2022-08-31T14:54:53.917Z,21.90
2022-08-31T14:57:45.917Z,21.80
2022-08-31T15:00:34.037Z,21.90
2022-08-31T15:03:24.387Z,21.70
2022-08-31T15:06:10.182Z,21.70
2022-08-31T15:08:55.702Z,21.90
2022-08-31T15:11:41.174Z,21.90
2022-08-31T15:14:28.073Z,21.70
2022-08-31T15:17:19.116Z,21.80
2022-08-31T15:20:08.124Z,21.80
2022-08-31T15:22:53.628Z,21.80
2022-08-31T15:25:39.292Z,22.00
2022-08-31T15:28:24.958Z,22.10
2022-08-31T15:31:23.846Z,22.00
2022-08-31T15:34:10.206Z,22.20
2022-08-31T15:37:01.032Z,21.90
2022-08-31T15:39:49.326Z,22.00
2022-08-31T15:42:38.293Z,21.90
2022-08-31T15:45:27.958Z,21.60
2022-08-31T15:48:32.130Z,21.70
2022-08-31T15:51:27.965Z,21.80
2022-08-31T15:54:22.215Z,21.70
2022-08-31T15:57:11.220Z,21.70
2022-08-31T15:59:56.807Z,21.50
2022-08-31T16:02:43.994Z,22.00
2022-08-31T16:05:35.826Z,22.00
2022-08-31T16:08:27.919Z,21.80
2022-08-31T16:11:13.803Z,21.90
2022-08-31T16:13:59.974Z,21.70
2022-08-31T16:16:49.558Z,21.60
2022-08-31T16:19:39.396Z,21.90
2022-08-31T16:22:25.727Z,21.60
2022-08-31T16:25:16.576Z,21.50
2022-08-31T16:28:03.702Z,21.60
2022-08-31T16:30:51.115Z,21.60
2022-08-31T16:33:37.042Z,21.60
2022-08-31T16:36:28.169Z,21.50
2022-08-31T16:39:13.923Z,21.50
2022-08-31T16:41:59.565Z,21.30
2022-08-31T16:44:47.874Z,21.30
2022-08-31T16:47:33.709Z,21.50
2022-08-31T16:50:19.701Z,21.40
2022-08-31T16:53:05.107Z,21.30
2022-08-31T16:55:50.984Z,21.10
2022-08-31T16:58:51.906Z,20.90
2022-08-31T17:01:44.038Z,20.90
2022-08-31T17:04:51.104Z,20.80
2022-08-31T17:07:35.524Z,20.80
2022-08-31T17:10:21.287Z,20.90
2022-08-31T17:13:07.242Z,20.70
2022-08-31T17:15:53.365Z,20.60
2022-08-31T17:18:41.115Z,20.70
2022-08-31T17:21:29.851Z,20.70
2022-08-31T17:24:18.810Z,20.40
2022-08-31T17:27:09.486Z,20.30
2022-08-31T17:30:00.928Z,20.00
2022-08-31T17:32:47.115Z,19.80
2022-08-31T17:35:32.999Z,19.60
2022-08-31T17:38:18.970Z,19.60
2022-08-31T17:41:09.175Z,19.60
2022-08-31T17:43:59.502Z,19.60
2022-08-31T17:46:47.369Z,19.50
2022-08-31T17:49:37.840Z,19.40
2022-08-31T17:52:23.851Z,19.30
2022-08-31T17:55:09.537Z,19.20
2022-08-31T17:57:58.534Z,19.00
2022-08-31T18:00:44.269Z,18.90
2022-08-31T18:03:29.939Z,18.80
2022-08-31T18:06:18.640Z,18.70
2022-08-31T18:09:04.655Z,18.60
2022-08-31T18:11:51.537Z,18.50
2022-08-31T18:14:38.158Z,18.40
2022-08-31T18:17:24.354Z,18.30
2022-08-31T18:20:12.438Z,18.20
2022-08-31T18:22:58.035Z,18.20
2022-08-31T18:25:43.833Z,18.10
2022-08-31T18:28:29.515Z,18.00
2022-08-31T18:31:20.783Z,17.90
2022-08-31T18:34:10.335Z,17.90
2022-08-31T18:36:58.631Z,17.90
2022-08-31T18:40:05.347Z,17.80
2022-08-31T18:43:11.592Z,17.70
2022-08-31T18:45:57.335Z,17.60
2022-08-31T18:49:01.032Z,17.60
2022-08-31T18:51:57.258Z,17.50
2022-08-31T18:54:43.273Z,17.50
2022-08-31T18:57:28.975Z,17.50
2022-08-31T19:00:16.295Z,17.50
2022-08-31T19:03:03.680Z,17.30
2022-08-31T19:05:49.465Z,17.40
2022-08-31T19:08:36.461Z,17.30
2022-08-31T19:11:23.611Z,17.20
2022-08-31T19:14:09.810Z,17.20
2022-08-31T19:17:03.905Z,17.20
2022-08-31T19:19:50.443Z,17.10
2022-08-31T19:22:36.476Z,17.10
2022-08-31T19:25:22.835Z,17.00
2022-08-31T19:28:08.478Z,17.00
2022-08-31T19:30:54.071Z,16.90
2022-08-31T19:33:39.809Z,16.90
2022-08-31T19:36:27.258Z,16.90
2022-08-31T19:39:21.794Z,16.90
2022-08-31T19:42:08.806Z,16.80
2022-08-31T19:45:22.810Z,16.80
2022-08-31T19:48:02.079Z,16.80
2022-08-31T19:50:48.168Z,16.70
2022-08-31T19:53:34.017Z,16.70
2022-08-31T19:56:30.389Z,16.70
2022-08-31T19:59:20.010Z,16.70
2022-08-31T20:02:07.228Z,16.60
2022-08-31T20:04:53.104Z,16.60
2022-08-31T20:07:41.359Z,16.60
2022-08-31T20:10:29.892Z,16.60
2022-08-31T20:13:16.084Z,16.50
2022-08-31T20:16:04.588Z,16.50
2022-08-31T20:18:53.174Z,16.50
2022-08-31T20:21:42.035Z,16.50
2022-08-31T20:24:28.218Z,16.50
2022-08-31T20:27:18.854Z,16.40
2022-08-31T20:30:06.088Z,16.40
2022-08-31T20:32:51.719Z,16.40
2022-08-31T20:35:42.558Z,16.40
2022-08-31T20:38:36.218Z,16.40
2022-08-31T20:41:21.474Z,16.40
2022-08-31T20:44:15.622Z,16.40
2022-08-31T20:47:24.548Z,16.30
2022-08-31T20:50:11.563Z,16.40
2022-08-31T20:52:57.084Z,16.40
2022-08-31T20:55:42.722Z,16.30
2022-08-31T20:58:28.223Z,16.30
2022-08-31T21:01:15.936Z,16.30
2022-08-31T21:04:01.727Z,16.30
2022-08-31T21:06:47.636Z,16.30
2022-08-31T21:09:33.595Z,16.30
2022-08-31T21:12:20.936Z,16.30
2022-08-31T21:15:10.205Z,16.30
2022-08-31T21:17:57.055Z,16.30
2022-08-31T21:20:43.738Z,16.20
2022-08-31T21:23:31.712Z,16.30
2022-08-31T21:26:21.733Z,16.30
2022-08-31T21:29:10.381Z,16.20
2022-08-31T21:32:03.336Z,16.20
2022-08-31T21:34:49.732Z,16.20
2022-08-31T21:37:35.621Z,16.20
2022-08-31T21:40:21.193Z,16.20
2022-08-31T21:43:06.668Z,16.20
2022-08-31T21:46:09.866Z,16.10
2022-08-31T21:48:56.820Z,16.10
2022-08-31T21:51:54.507Z,16.10
2022-08-31T21:54:42.558Z,16.10
2022-08-31T21:57:28.467Z,16.10
2022-08-31T22:00:18.427Z,16.10
2022-08-31T22:03:09.284Z,16.10
2022-08-31T22:05:55.104Z,16.10
2022-08-31T22:08:41.773Z,16.00
2022-08-31T22:11:31.764Z,16.00
2022-08-31T22:14:20.056Z,16.00
2022-08-31T22:17:07.774Z,16.00
2022-08-31T22:19:54.981Z,16.00
2022-08-31T22:22:40.801Z,16.00
2022-08-31T22:25:26.663Z,15.90
2022-08-31T22:28:12.959Z,16.00
2022-08-31T22:31:00.846Z,16.00
2022-08-31T22:33:49.464Z,15.90
2022-08-31T22:36:35.848Z,16.00
2022-08-31T22:39:26.180Z,15.90
2022-08-31T22:42:13.157Z,15.90
2022-08-31T22:44:59.101Z,15.90
2022-08-31T22:47:49.780Z,15.90
2022-08-31T22:50:36.130Z,15.90
2022-08-31T22:53:21.725Z,15.90
2022-08-31T22:56:15.798Z,15.90
2022-08-31T22:59:05.286Z,15.90
2022-08-31T23:01:54.966Z,15.90
2022-08-31T23:04:44.061Z,15.90
2022-08-31T23:07:29.858Z,15.90
2022-08-31T23:10:18.638Z,15.90
2022-08-31T23:13:04.662Z,15.80
2022-08-31T23:15:50.484Z,15.90
2022-08-31T23:18:36.157Z,15.90
2022-08-31T23:21:21.862Z,15.90
2022-08-31T23:24:07.470Z,15.90
2022-08-31T23:26:53.201Z,15.90
2022-08-31T23:29:47.234Z,15.90
2022-08-31T23:32:35.536Z,15.90
2022-08-31T23:35:22.045Z,15.90
2022-08-31T23:38:07.991Z,15.90
2022-08-31T23:40:56.254Z,15.90
2022-08-31T23:43:42.013Z,15.90
2022-08-31T23:46:27.679Z,15.90
2022-08-31T23:49:15.659Z,15.90
2022-08-31T23:52:01.236Z,15.90
2022-08-31T23:54:54.191Z,15.80
2022-08-31T23:57:40.188Z,15.80
